createdAt,value
2023-04-22T00:00:41.885Z,701.00
2023-04-22T00:01:41.933Z,714.00
2023-04-22T00:02:42.054Z,723.00
2023-04-22T00:03:42.086Z,723.00
2023-04-22T00:04:42.277Z,731.00
2023-04-22T00:05:42.200Z,715.00
2023-04-22T00:06:42.041Z,716.00
2023-04-22T00:07:42.003Z,719.00
2023-04-22T00:08:41.979Z,717.00
2023-04-22T00:09:41.959Z,719.00
2023-04-22T00:10:41.942Z,719.00
2023-04-22T00:11:41.911Z,721.00
2023-04-22T00:12:41.913Z,727.00
2023-04-22T00:13:41.875Z,705.00
2023-04-22T00:14:41.835Z,705.00
2023-04-22T00:15:41.829Z,706.00
2023-04-22T00:16:41.910Z,708.00
2023-04-22T00:17:41.837Z,708.00
2023-04-22T00:18:41.755Z,716.00
2023-04-22T00:19:41.770Z,702.00
2023-04-22T00:20:41.714Z,707.00
2023-04-22T00:21:41.704Z,712.00
2023-04-22T00:22:41.670Z,705.00
2023-04-22T00:23:41.650Z,706.00
2023-04-22T00:24:41.632Z,709.00
2023-04-22T00:25:41.612Z,712.00
2023-04-22T00:26:41.584Z,722.00
2023-04-22T00:27:41.560Z,711.00
2023-04-22T00:28:41.554Z,698.00
2023-04-22T00:29:41.604Z,704.00
2023-04-22T00:30:41.508Z,703.00
2023-04-22T00:31:41.535Z,695.00
2023-04-22T00:32:41.519Z,701.00
2023-04-22T00:33:41.452Z,698.00
2023-04-22T00:34:41.474Z,719.00
2023-04-22T00:35:41.507Z,710.00
2023-04-22T00:36:41.546Z,693.00
2023-04-22T00:37:41.567Z,706.00
2023-04-22T00:38:41.559Z,700.00
2023-04-22T00:39:41.762Z,702.00
2023-04-22T00:40:41.598Z,697.00
2023-04-22T00:41:41.628Z,691.00
2023-04-22T00:42:41.660Z,707.00
2023-04-22T00:43:41.691Z,700.00
2023-04-22T00:44:41.691Z,698.00
2023-04-22T00:45:41.708Z,689.00
2023-04-22T00:46:41.822Z,702.00
2023-04-22T00:47:41.878Z,687.00
2023-04-22T00:48:41.811Z,698.00
2023-04-22T00:49:41.966Z,687.00
2023-04-22T00:50:41.858Z,703.00
2023-04-22T00:51:41.870Z,697.00
2023-04-22T00:52:41.923Z,683.00
2023-04-22T00:53:41.955Z,697.00
2023-04-22T00:54:41.984Z,689.00
2023-04-22T00:55:42.037Z,691.00
2023-04-22T00:56:42.078Z,680.00
2023-04-22T00:57:42.112Z,692.00
2023-04-22T00:58:42.162Z,699.00
2023-04-22T00:59:42.415Z,689.00
2023-04-22T01:00:42.308Z,695.00
2023-04-22T01:01:42.307Z,695.00
2023-04-22T01:02:42.418Z,684.00
2023-04-22T01:03:42.724Z,674.00
2023-04-22T01:04:42.351Z,685.00
2023-04-22T01:05:42.390Z,678.00
2023-04-22T01:06:42.393Z,687.00
2023-04-22T01:07:42.413Z,684.00
2023-04-22T01:08:42.447Z,684.00
2023-04-22T01:09:42.661Z,688.00
2023-04-22T01:10:42.517Z,672.00
2023-04-22T01:11:42.529Z,669.00
2023-04-22T01:12:42.576Z,674.00
2023-04-22T01:13:42.605Z,694.00
2023-04-22T01:14:42.616Z,687.00
2023-04-22T01:15:42.645Z,680.00
2023-04-22T01:16:42.679Z,688.00
2023-04-22T01:17:42.777Z,683.00
2023-04-22T01:18:42.770Z,683.00
2023-04-22T01:19:43.400Z,682.00
2023-04-22T01:20:42.802Z,694.00
2023-04-22T01:21:42.818Z,690.00
2023-04-22T01:22:42.825Z,685.00
2023-04-22T01:23:42.833Z,681.00
2023-04-22T01:24:42.863Z,674.00
2023-04-22T01:25:42.935Z,670.00
2023-04-22T01:26:42.834Z,693.00
2023-04-22T01:27:42.864Z,687.00
2023-04-22T01:28:42.826Z,688.00
2023-04-22T01:29:43.013Z,689.00
2023-04-22T01:30:42.784Z,689.00
2023-04-22T01:31:42.802Z,687.00
2023-04-22T01:32:42.773Z,685.00
2023-04-22T01:33:42.734Z,675.00
2023-04-22T01:34:42.716Z,678.00
2023-04-22T01:35:42.671Z,684.00
2023-04-22T01:36:42.651Z,678.00
2023-04-22T01:37:42.646Z,672.00
2023-04-22T01:38:42.611Z,687.00
2023-04-22T01:39:42.699Z,677.00
2023-04-22T01:41:04.106Z,500.00
2023-04-22T01:42:04.115Z,500.00
2023-04-22T01:43:04.135Z,500.00
2023-04-22T01:44:04.155Z,500.00
2023-04-22T01:45:04.168Z,500.00
2023-04-22T01:46:04.271Z,502.00
2023-04-22T01:47:04.206Z,504.00
2023-04-22T01:48:04.299Z,502.00
2023-04-22T01:49:04.242Z,506.00
2023-04-22T01:50:04.267Z,505.00
2023-04-22T01:51:04.280Z,502.00
2023-04-22T01:52:04.307Z,508.00
2023-04-22T01:53:04.309Z,506.00
2023-04-22T01:54:04.318Z,504.00
2023-04-22T01:55:04.354Z,508.00
2023-04-22T01:56:04.362Z,507.00
2023-04-22T01:57:04.358Z,504.00
2023-04-22T01:58:04.368Z,503.00
2023-04-22T01:59:04.379Z,506.00
2023-04-22T02:00:04.396Z,507.00
2023-04-22T02:01:04.457Z,507.00
2023-04-22T02:02:04.459Z,507.00
2023-04-22T02:03:04.607Z,508.00
2023-04-22T02:04:04.455Z,510.00
2023-04-22T02:05:04.508Z,506.00
2023-04-22T02:06:04.487Z,509.00
2023-04-22T02:07:04.491Z,506.00
2023-04-22T02:08:04.520Z,505.00
2023-04-22T02:09:04.512Z,509.00
2023-04-22T02:10:04.533Z,509.00
2023-04-22T02:11:04.559Z,509.00
2023-04-22T02:12:04.556Z,510.00
2023-04-22T02:13:04.578Z,511.00
2023-04-22T02:14:04.585Z,507.00
2023-04-22T02:15:04.615Z,508.00
2023-04-22T02:16:04.718Z,509.00
2023-04-22T02:17:04.637Z,505.00
2023-04-22T02:18:04.643Z,508.00
2023-04-22T02:19:04.645Z,510.00
2023-04-22T02:20:04.734Z,500.00
2023-04-22T02:21:04.677Z,506.00
2023-04-22T02:22:04.719Z,507.00
2023-04-22T02:23:04.763Z,506.00
2023-04-22T02:24:04.823Z,509.00
2023-04-22T02:25:04.913Z,503.00
2023-04-22T02:26:04.959Z,507.00
2023-04-22T02:27:05.020Z,502.00
2023-04-22T02:28:05.074Z,506.00
2023-04-22T02:29:05.136Z,505.00
2023-04-22T02:30:05.204Z,514.00
2023-04-22T02:31:05.280Z,506.00
2023-04-22T02:32:05.314Z,507.00
2023-04-22T02:33:05.398Z,510.00
2023-04-22T02:34:05.445Z,506.00
2023-04-22T02:35:05.516Z,506.00
2023-04-22T02:36:05.598Z,505.00
2023-04-22T02:37:05.707Z,512.00
2023-04-22T02:38:05.705Z,501.00
2023-04-22T02:39:05.760Z,511.00
2023-04-22T02:40:05.822Z,516.00
2023-04-22T02:41:05.888Z,511.00
2023-04-22T02:42:05.945Z,512.00
2023-04-22T02:43:05.996Z,507.00
2023-04-22T02:44:06.071Z,508.00
2023-04-22T02:45:06.144Z,508.00
2023-04-22T02:46:06.206Z,504.00
2023-04-22T02:47:06.328Z,505.00
2023-04-22T02:48:06.376Z,505.00
2023-04-22T02:49:06.391Z,510.00
2023-04-22T02:50:06.445Z,508.00
2023-04-22T02:51:06.516Z,504.00
2023-04-22T02:52:06.581Z,507.00
2023-04-22T02:53:06.644Z,505.00
2023-04-22T02:54:06.706Z,510.00
2023-04-22T02:55:06.770Z,507.00
2023-04-22T02:56:06.829Z,506.00
2023-04-22T02:57:06.897Z,508.00
2023-04-22T02:58:06.963Z,508.00
2023-04-22T02:59:07.022Z,510.00
2023-04-22T03:00:07.097Z,500.00
2023-04-22T03:01:07.345Z,506.00
2023-04-22T03:02:07.270Z,508.00
2023-04-22T03:03:07.419Z,510.00
2023-04-22T03:04:07.508Z,510.00
2023-04-22T03:05:07.420Z,503.00
2023-04-22T03:06:07.484Z,507.00
2023-04-22T03:07:07.670Z,505.00
2023-04-22T03:08:07.637Z,514.00
2023-04-22T03:09:07.701Z,510.00
2023-04-22T03:10:07.735Z,508.00
2023-04-22T03:11:07.797Z,507.00
2023-04-22T03:12:07.862Z,508.00
2023-04-22T03:13:07.949Z,510.00
2023-04-22T03:14:07.993Z,510.00
2023-04-22T03:15:08.053Z,509.00
2023-04-22T03:16:08.173Z,510.00
2023-04-22T03:17:08.194Z,511.00
2023-04-22T03:18:08.359Z,513.00
2023-04-22T03:19:08.333Z,512.00
2023-04-22T03:20:08.405Z,512.00
2023-04-22T03:21:08.481Z,508.00
2023-04-22T03:22:08.542Z,508.00
2023-04-22T03:23:08.604Z,514.00
2023-04-22T03:24:08.680Z,511.00
2023-04-22T03:25:08.735Z,510.00
2023-04-22T03:26:08.818Z,510.00
2023-04-22T03:27:08.878Z,512.00
2023-04-22T03:28:08.948Z,510.00
2023-04-22T03:29:09.023Z,510.00
2023-04-22T03:30:09.097Z,502.00
2023-04-22T03:31:09.166Z,512.00
2023-04-22T03:32:09.340Z,506.00
2023-04-22T03:33:09.324Z,508.00
2023-04-22T03:34:09.366Z,513.00
2023-04-22T03:35:09.435Z,511.00
2023-04-22T03:36:09.510Z,508.00
2023-04-22T03:37:09.572Z,510.00
2023-04-22T03:38:09.638Z,507.00
2023-04-22T03:39:09.714Z,511.00
2023-04-22T03:40:09.765Z,509.00
2023-04-22T03:41:09.841Z,509.00
2023-04-22T03:42:09.915Z,510.00
2023-04-22T03:43:09.978Z,510.00
2023-04-22T03:44:10.051Z,508.00
2023-04-22T03:45:10.128Z,505.00
2023-04-22T03:46:10.268Z,508.00
2023-04-22T03:47:10.272Z,513.00
2023-04-22T03:48:10.338Z,507.00
2023-04-22T03:49:10.404Z,513.00
2023-04-22T03:50:10.481Z,508.00
2023-04-22T03:51:10.542Z,510.00
2023-04-22T03:52:10.616Z,510.00
2023-04-22T03:53:10.666Z,508.00
2023-04-22T03:54:10.723Z,507.00
2023-04-22T03:55:10.794Z,511.00
2023-04-22T03:56:10.889Z,508.00
2023-04-22T03:57:10.937Z,509.00
2023-04-22T03:58:11.002Z,510.00
2023-04-22T03:59:11.093Z,512.00
2023-04-22T04:00:11.143Z,508.00
2023-04-22T04:01:11.218Z,506.00
2023-04-22T04:02:11.367Z,506.00
2023-04-22T04:03:11.458Z,510.00
2023-04-22T04:04:11.523Z,509.00
2023-04-22T04:05:11.608Z,510.00
2023-04-22T04:06:11.587Z,509.00
2023-04-22T04:07:11.643Z,507.00
2023-04-22T04:08:11.721Z,512.00
2023-04-22T04:09:11.777Z,508.00
2023-04-22T04:10:11.861Z,512.00
2023-04-22T04:11:11.952Z,505.00
2023-04-22T04:12:11.984Z,507.00
2023-04-22T04:13:12.062Z,508.00
2023-04-22T04:14:12.151Z,509.00
2023-04-22T04:15:12.206Z,505.00
2023-04-22T04:16:12.317Z,507.00
2023-04-22T04:17:12.361Z,510.00
2023-04-22T04:18:12.423Z,505.00
2023-04-22T04:19:12.594Z,503.00
2023-04-22T04:20:12.580Z,506.00
2023-04-22T04:21:12.648Z,513.00
2023-04-22T04:22:12.716Z,510.00
2023-04-22T04:23:12.768Z,506.00
2023-04-22T04:24:12.854Z,511.00
2023-04-22T04:25:12.908Z,511.00
2023-04-22T04:26:13.093Z,510.00
2023-04-22T04:27:13.052Z,509.00
2023-04-22T04:28:13.116Z,509.00
2023-04-22T04:29:13.192Z,509.00
2023-04-22T04:30:13.280Z,509.00
2023-04-22T04:31:13.405Z,509.00
2023-04-22T04:32:13.393Z,509.00
2023-04-22T04:33:13.539Z,510.00
2023-04-22T04:34:13.527Z,508.00
2023-04-22T04:35:13.612Z,510.00
2023-04-22T04:36:13.661Z,510.00
2023-04-22T04:37:13.726Z,513.00
2023-04-22T04:38:13.797Z,507.00
2023-04-22T04:39:13.861Z,508.00
2023-04-22T04:40:13.964Z,506.00
2023-04-22T04:41:14.012Z,512.00
2023-04-22T04:42:14.087Z,511.00
2023-04-22T04:43:14.140Z,512.00
2023-04-22T04:44:14.197Z,512.00
2023-04-22T04:45:14.263Z,509.00
2023-04-22T04:46:14.331Z,514.00
2023-04-22T04:47:14.397Z,509.00
2023-04-22T04:48:14.460Z,509.00
2023-04-22T04:49:14.539Z,511.00
2023-04-22T04:50:14.593Z,512.00
2023-04-22T04:51:14.665Z,510.00
2023-04-22T04:52:14.728Z,508.00
2023-04-22T04:53:14.783Z,507.00
2023-04-22T04:54:14.848Z,511.00
2023-04-22T04:55:14.907Z,510.00
2023-04-22T04:56:14.988Z,516.00
2023-04-22T04:57:15.046Z,511.00
2023-04-22T04:58:15.104Z,511.00
2023-04-22T04:59:15.174Z,511.00
2023-04-22T05:00:15.248Z,509.00
2023-04-22T05:01:15.379Z,515.00
2023-04-22T05:02:15.463Z,515.00
2023-04-22T05:03:15.561Z,511.00
2023-04-22T05:04:15.604Z,515.00
2023-04-22T05:05:15.561Z,514.00
2023-04-22T05:06:15.633Z,509.00
2023-04-22T05:07:15.698Z,513.00
2023-04-22T05:08:15.770Z,509.00
2023-04-22T05:09:15.827Z,517.00
2023-04-22T05:10:15.908Z,514.00
2023-04-22T05:11:15.956Z,513.00
2023-04-22T05:12:16.023Z,512.00
2023-04-22T05:13:16.082Z,515.00
2023-04-22T05:14:16.157Z,513.00
2023-04-22T05:15:16.212Z,514.00
2023-04-22T05:16:16.301Z,516.00
2023-04-22T05:17:16.339Z,518.00
2023-04-22T05:18:16.403Z,510.00
2023-04-22T05:19:16.465Z,517.00
2023-04-22T05:20:16.525Z,516.00
2023-04-22T05:21:16.581Z,517.00
2023-04-22T05:22:16.640Z,516.00
2023-04-22T05:23:16.695Z,516.00
2023-04-22T05:24:16.707Z,516.00
2023-04-22T05:25:16.710Z,516.00
2023-04-22T05:26:16.718Z,517.00
2023-04-22T05:27:16.732Z,516.00
2023-04-22T05:28:16.730Z,517.00
2023-04-22T05:29:16.724Z,517.00
2023-04-22T05:30:16.734Z,521.00
2023-04-22T05:31:16.740Z,521.00
2023-04-22T05:32:16.801Z,519.00
2023-04-22T05:33:16.804Z,517.00
2023-04-22T05:34:16.750Z,521.00
2023-04-22T05:35:16.758Z,521.00
2023-04-22T05:36:16.817Z,516.00
2023-04-22T05:37:16.866Z,519.00
2023-04-22T05:38:16.937Z,516.00
2023-04-22T05:39:17.010Z,521.00
2023-04-22T05:40:17.077Z,519.00
2023-04-22T05:41:17.146Z,518.00
2023-04-22T05:42:17.200Z,517.00
2023-04-22T05:43:17.275Z,518.00
2023-04-22T05:44:17.326Z,519.00
2023-04-22T05:45:17.406Z,518.00
2023-04-22T05:46:17.532Z,518.00
2023-04-22T05:47:17.526Z,524.00
2023-04-22T05:48:17.596Z,520.00
2023-04-22T05:49:17.655Z,521.00
2023-04-22T05:50:17.712Z,519.00
2023-04-22T05:51:17.780Z,523.00
2023-04-22T05:52:17.833Z,519.00
2023-04-22T05:53:17.912Z,517.00
2023-04-22T05:54:17.978Z,522.00
2023-04-22T05:55:18.049Z,523.00
2023-04-22T05:56:18.130Z,518.00
2023-04-22T05:57:18.192Z,522.00
2023-04-22T05:58:18.238Z,521.00
2023-04-22T05:59:19.546Z,518.00
2023-04-22T06:00:18.372Z,518.00
2023-04-22T06:01:18.413Z,522.00
2023-04-22T06:02:18.619Z,524.00
2023-04-22T06:03:18.788Z,521.00
2023-04-22T06:04:18.881Z,522.00
2023-04-22T06:05:18.805Z,525.00
2023-04-22T06:06:18.703Z,523.00
2023-04-22T06:07:18.830Z,525.00
2023-04-22T06:08:18.838Z,519.00
2023-04-22T06:09:18.899Z,524.00
2023-04-22T06:10:18.972Z,523.00
2023-04-22T06:11:19.031Z,524.00
2023-04-22T06:12:19.080Z,521.00
2023-04-22T06:13:19.131Z,522.00
2023-04-22T06:14:19.153Z,522.00
2023-04-22T06:15:19.143Z,523.00
2023-04-22T06:16:19.152Z,523.00
2023-04-22T06:17:19.155Z,526.00
2023-04-22T06:18:19.152Z,533.00
2023-04-22T06:19:19.160Z,525.00
2023-04-22T06:20:19.170Z,524.00
2023-04-22T06:21:19.179Z,529.00
2023-04-22T06:22:19.176Z,530.00
2023-04-22T06:23:19.189Z,529.00
2023-04-22T06:24:19.218Z,528.00
2023-04-22T06:25:19.268Z,531.00
2023-04-22T06:26:19.317Z,529.00
2023-04-22T06:27:19.360Z,529.00
2023-04-22T06:28:19.395Z,532.00
2023-04-22T06:29:19.446Z,533.00
2023-04-22T06:30:19.497Z,530.00
2023-04-22T06:31:21.069Z,530.00
2023-04-22T06:32:19.588Z,534.00
2023-04-22T06:33:19.633Z,535.00
2023-04-22T06:34:19.672Z,531.00
2023-04-22T06:35:19.736Z,531.00
2023-04-22T06:36:19.761Z,534.00
2023-04-22T06:37:19.825Z,528.00
2023-04-22T06:38:19.851Z,532.00
2023-04-22T06:39:19.890Z,537.00
2023-04-22T06:40:19.933Z,535.00
2023-04-22T06:41:19.973Z,527.00
2023-04-22T06:42:20.016Z,532.00
2023-04-22T06:43:20.046Z,534.00
2023-04-22T06:44:20.082Z,531.00
2023-04-22T06:45:20.123Z,539.00
2023-04-22T06:46:20.221Z,536.00
2023-04-22T06:47:20.224Z,536.00
2023-04-22T06:48:20.238Z,534.00
2023-04-22T06:49:20.271Z,534.00
2023-04-22T06:50:20.315Z,533.00
2023-04-22T06:51:20.348Z,538.00
2023-04-22T06:52:21.856Z,536.00
2023-04-22T06:53:20.409Z,537.00
2023-04-22T06:54:20.460Z,537.00
2023-04-22T06:55:20.476Z,540.00
2023-04-22T06:56:20.519Z,537.00
2023-04-22T06:57:20.581Z,544.00
2023-04-22T06:58:20.610Z,543.00
2023-04-22T06:59:20.645Z,543.00
2023-04-22T07:00:20.703Z,543.00
2023-04-22T07:01:20.742Z,540.00
2023-04-22T07:02:20.840Z,541.00
2023-04-22T07:03:20.953Z,542.00
2023-04-22T07:04:20.874Z,541.00
2023-04-22T07:05:20.896Z,543.00
2023-04-22T07:06:20.931Z,545.00
2023-04-22T07:07:20.988Z,536.00
2023-04-22T07:08:21.027Z,545.00
2023-04-22T07:09:21.064Z,546.00
2023-04-22T07:10:21.104Z,548.00
2023-04-22T07:11:21.152Z,545.00
2023-04-22T07:12:21.182Z,542.00
2023-04-22T07:13:21.240Z,547.00
2023-04-22T07:14:21.284Z,547.00
2023-04-22T07:15:21.322Z,547.00
2023-04-22T07:16:21.421Z,544.00
2023-04-22T07:17:21.403Z,545.00
2023-04-22T07:18:21.388Z,545.00
2023-04-22T07:19:21.382Z,546.00
2023-04-22T07:20:21.380Z,546.00
2023-04-22T07:21:21.388Z,545.00
2023-04-22T07:22:21.431Z,546.00
2023-04-22T07:23:21.395Z,547.00
2023-04-22T07:24:21.401Z,549.00
2023-04-22T07:25:21.395Z,549.00
2023-04-22T07:26:21.413Z,550.00
2023-04-22T07:27:21.411Z,549.00
2023-04-22T07:28:21.397Z,545.00
2023-04-22T07:29:21.426Z,551.00
2023-04-22T07:30:21.434Z,550.00
2023-04-22T07:31:21.448Z,553.00
2023-04-22T07:32:21.477Z,551.00
2023-04-22T07:33:21.428Z,550.00
2023-04-22T07:34:21.484Z,553.00
2023-04-22T07:35:21.522Z,550.00
2023-04-22T07:36:21.602Z,555.00
2023-04-22T07:37:21.613Z,548.00
2023-04-22T07:38:21.664Z,557.00
2023-04-22T07:39:21.718Z,554.00
2023-04-22T07:40:21.767Z,546.00
2023-04-22T07:41:21.822Z,546.00
2023-04-22T07:42:21.860Z,551.00
2023-04-22T07:43:21.909Z,560.00
2023-04-22T07:44:21.969Z,550.00
2023-04-22T07:45:22.023Z,552.00
2023-04-22T07:46:22.117Z,545.00
2023-04-22T07:47:22.146Z,556.00
2023-04-22T07:48:22.173Z,551.00
2023-04-22T07:49:22.232Z,552.00
2023-04-22T07:50:22.286Z,554.00
2023-04-22T07:51:22.342Z,555.00
2023-04-22T07:52:22.381Z,554.00
2023-04-22T07:53:22.440Z,555.00
2023-04-22T07:54:22.492Z,552.00
2023-04-22T07:55:22.551Z,556.00
2023-04-22T07:56:22.618Z,558.00
2023-04-22T07:57:22.693Z,557.00
2023-04-22T07:58:22.698Z,556.00
2023-04-22T07:59:22.746Z,561.00
2023-04-22T08:00:22.837Z,559.00
2023-04-22T08:01:23.015Z,558.00
2023-04-22T08:02:23.017Z,561.00
2023-04-22T08:03:23.120Z,557.00
2023-04-22T08:04:23.624Z,558.00
2023-04-22T08:05:23.134Z,560.00
2023-04-22T08:06:23.141Z,560.00
2023-04-22T08:08:23.207Z,561.00
2023-04-22T08:09:23.211Z,562.00
2023-04-22T08:10:23.246Z,562.00
2023-04-22T08:11:23.242Z,555.00
2023-04-22T08:12:23.241Z,555.00
2023-04-22T08:13:23.248Z,559.00
2023-04-22T08:14:23.254Z,556.00
2023-04-22T08:15:23.270Z,559.00
2023-04-22T08:16:23.414Z,558.00
2023-04-22T08:17:23.344Z,556.00
2023-04-22T08:18:23.365Z,560.00
2023-04-22T08:19:23.294Z,561.00
2023-04-22T08:20:23.307Z,561.00
2023-04-22T08:21:23.300Z,562.00
2023-04-22T08:22:23.302Z,560.00
2023-04-22T08:23:23.331Z,566.00
2023-04-22T08:24:23.309Z,569.00
2023-04-22T08:25:23.296Z,565.00
2023-04-22T08:26:23.328Z,564.00
2023-04-22T08:27:23.309Z,560.00
2023-04-22T08:28:23.352Z,563.00
2023-04-22T08:29:23.406Z,562.00
2023-04-22T08:30:23.449Z,564.00
2023-04-22T08:31:23.520Z,560.00
2023-04-22T08:32:23.572Z,562.00
2023-04-22T08:33:24.769Z,559.00
2023-04-22T08:34:23.605Z,566.00
2023-04-22T08:35:23.608Z,568.00
2023-04-22T08:36:23.612Z,565.00
2023-04-22T08:37:23.609Z,562.00
2023-04-22T08:38:23.614Z,557.00
2023-04-22T08:39:23.614Z,564.00
2023-04-22T08:40:23.622Z,566.00
2023-04-22T08:41:23.626Z,564.00
2023-04-22T08:42:23.634Z,565.00
2023-04-22T08:43:23.627Z,560.00
2023-04-22T08:44:23.633Z,565.00
2023-04-22T08:45:23.635Z,564.00
2023-04-22T08:46:23.663Z,563.00
2023-04-22T08:47:23.756Z,563.00
2023-04-22T08:48:23.655Z,560.00
2023-04-22T08:49:23.655Z,565.00
2023-04-22T08:50:23.650Z,564.00
2023-04-22T08:51:23.670Z,565.00
2023-04-22T08:52:23.670Z,558.00
2023-04-22T08:53:24.614Z,565.00
2023-04-22T08:54:23.678Z,566.00
2023-04-22T08:55:23.673Z,567.00
2023-04-22T08:56:23.677Z,570.00
2023-04-22T08:57:23.674Z,562.00
2023-04-22T08:58:23.681Z,567.00
2023-04-22T08:59:23.698Z,561.00
2023-04-22T09:00:24.694Z,562.00
2023-04-22T09:01:23.707Z,563.00
2023-04-22T09:02:23.700Z,564.00
2023-04-22T09:03:23.832Z,565.00
2023-04-22T09:04:23.787Z,567.00
2023-04-22T09:05:24.376Z,568.00
2023-04-22T09:06:23.730Z,569.00
2023-04-22T09:07:23.713Z,568.00
2023-04-22T09:08:23.712Z,573.00
2023-04-22T09:09:23.711Z,573.00
2023-04-22T09:10:23.719Z,573.00
2023-04-22T09:11:23.724Z,573.00
2023-04-22T09:12:23.728Z,573.00
2023-04-22T09:13:23.738Z,572.00
2023-04-22T09:14:23.732Z,567.00
2023-04-22T09:15:23.742Z,571.00
2023-04-22T09:16:23.784Z,568.00
2023-04-22T09:17:23.787Z,572.00
2023-04-22T09:18:23.775Z,572.00
2023-04-22T09:19:23.834Z,565.00
2023-04-22T09:20:23.909Z,577.00
2023-04-22T09:21:23.982Z,568.00
2023-04-22T09:22:24.040Z,568.00
2023-04-22T09:23:24.078Z,570.00
2023-04-22T09:24:24.139Z,573.00
2023-04-22T09:25:24.224Z,575.00
2023-04-22T09:26:24.276Z,570.00
2023-04-22T09:27:24.320Z,568.00
2023-04-22T09:28:24.386Z,570.00
2023-04-22T09:29:24.447Z,569.00
2023-04-22T09:30:24.514Z,569.00
2023-04-22T09:31:24.640Z,571.00
2023-04-22T09:32:24.773Z,574.00
2023-04-22T09:33:24.686Z,573.00
2023-04-22T09:34:24.747Z,572.00
2023-04-22T09:35:24.810Z,572.00
2023-04-22T09:36:24.874Z,573.00
2023-04-22T09:37:26.057Z,573.00
2023-04-22T09:38:24.936Z,585.00
2023-04-22T09:39:24.947Z,576.00
2023-04-22T09:40:24.944Z,578.00
2023-04-22T09:41:24.948Z,576.00
2023-04-22T09:42:24.946Z,572.00
2023-04-22T09:43:24.960Z,575.00
2023-04-22T09:44:24.963Z,572.00
2023-04-22T09:45:24.974Z,578.00
2023-04-22T09:46:25.067Z,573.00
2023-04-22T09:47:25.008Z,575.00
2023-04-22T09:48:24.984Z,573.00
2023-04-22T09:49:24.988Z,571.00
2023-04-22T09:50:25.003Z,576.00
2023-04-22T09:51:25.020Z,577.00
2023-04-22T09:52:25.029Z,569.00
2023-04-22T09:53:25.027Z,572.00
2023-04-22T09:54:25.037Z,573.00
2023-04-22T09:55:25.060Z,573.00
2023-04-22T09:56:25.060Z,574.00
2023-04-22T09:57:25.057Z,577.00
2023-04-22T09:58:25.073Z,578.00
2023-04-22T09:59:25.077Z,578.00
2023-04-22T10:00:25.103Z,578.00
2023-04-22T10:01:25.138Z,580.00
2023-04-22T10:02:25.153Z,575.00
2023-04-22T10:03:25.166Z,579.00
2023-04-22T10:04:25.192Z,579.00
2023-04-22T10:05:25.241Z,575.00
2023-04-22T10:06:25.302Z,575.00
2023-04-22T10:07:25.362Z,576.00
2023-04-22T10:08:25.429Z,571.00
2023-04-22T10:09:25.458Z,572.00
2023-04-22T10:10:25.460Z,572.00
2023-04-22T10:11:25.471Z,574.00
2023-04-22T10:12:32.931Z,573.00
2023-04-22T10:13:26.483Z,572.00
2023-04-22T10:14:25.513Z,573.00
2023-04-22T10:15:26.911Z,574.00
2023-04-22T10:16:25.578Z,577.00
2023-04-22T10:17:25.559Z,577.00
2023-04-22T10:18:25.554Z,576.00
2023-04-22T10:19:25.563Z,577.00
2023-04-22T10:20:25.579Z,577.00
2023-04-22T10:21:26.394Z,572.00
2023-04-22T10:22:25.632Z,578.00
2023-04-22T10:23:25.655Z,579.00
2023-04-22T10:24:25.636Z,578.00
2023-04-22T10:25:25.654Z,578.00
2023-04-22T10:26:25.651Z,576.00
2023-04-22T10:27:25.668Z,581.00
2023-04-22T10:28:25.673Z,575.00
2023-04-22T10:29:25.691Z,577.00
2023-04-22T10:30:25.693Z,577.00
2023-04-22T10:31:25.845Z,578.00
2023-04-22T10:32:25.734Z,578.00
2023-04-22T10:33:25.712Z,578.00
2023-04-22T10:34:25.756Z,580.00
2023-04-22T10:35:25.742Z,575.00
2023-04-22T10:36:25.750Z,576.00
2023-04-22T10:37:25.767Z,574.00
2023-04-22T10:38:25.770Z,576.00
2023-04-22T10:39:25.783Z,576.00
2023-04-22T10:40:25.821Z,583.00
2023-04-22T10:41:25.881Z,577.00
2023-04-22T10:42:25.932Z,579.00
2023-04-22T10:43:25.983Z,582.00
2023-04-22T10:44:26.041Z,577.00
2023-04-22T10:45:26.081Z,580.00
2023-04-22T10:46:26.174Z,584.00
2023-04-22T10:47:26.308Z,576.00
2023-04-22T10:48:26.248Z,574.00
2023-04-22T10:49:26.313Z,576.00
2023-04-22T10:50:26.366Z,578.00
2023-04-22T10:51:26.412Z,581.00
2023-04-22T10:52:26.480Z,576.00
2023-04-22T10:53:26.490Z,577.00
2023-04-22T10:54:27.362Z,578.00
2023-04-22T10:55:26.522Z,581.00
2023-04-22T10:56:26.519Z,575.00
2023-04-22T10:57:26.518Z,578.00
2023-04-22T10:58:26.535Z,579.00
2023-04-22T10:59:26.544Z,577.00
2023-04-22T11:00:28.235Z,574.00
2023-04-22T11:01:26.606Z,575.00
2023-04-22T11:02:26.681Z,576.00
2023-04-22T11:03:26.706Z,578.00
2023-04-22T11:04:26.623Z,585.00
2023-04-22T11:05:26.573Z,581.00
2023-04-22T11:06:26.594Z,581.00
2023-04-22T11:07:26.672Z,577.00
2023-04-22T11:08:26.604Z,577.00
2023-04-22T11:09:26.615Z,577.00
2023-04-22T11:10:26.618Z,570.00
2023-04-22T11:11:26.632Z,575.00
2023-04-22T11:12:26.629Z,580.00
2023-04-22T11:13:26.661Z,576.00
2023-04-22T11:14:26.672Z,579.00
2023-04-22T11:15:26.670Z,579.00
2023-04-22T11:16:26.697Z,580.00
2023-04-22T11:17:26.746Z,579.00
2023-04-22T11:18:26.700Z,580.00
2023-04-22T11:19:26.697Z,580.00
2023-04-22T11:20:26.712Z,580.00
2023-04-22T11:21:26.715Z,579.00
2023-04-22T11:22:26.723Z,583.00
2023-04-22T11:23:26.734Z,580.00
2023-04-22T11:24:26.745Z,580.00
2023-04-22T11:25:26.744Z,578.00
2023-04-22T11:26:26.759Z,577.00
2023-04-22T11:27:26.793Z,581.00
2023-04-22T11:28:26.765Z,580.00
2023-04-22T11:29:26.770Z,579.00
2023-04-22T11:30:26.771Z,579.00
2023-04-22T11:31:26.864Z,578.00
2023-04-22T11:32:26.801Z,573.00
2023-04-22T11:33:26.767Z,574.00
2023-04-22T11:34:26.812Z,576.00
2023-04-22T11:35:26.864Z,576.00
2023-04-22T11:36:26.928Z,574.00
2023-04-22T11:37:26.970Z,571.00
2023-04-22T11:38:27.031Z,573.00
2023-04-22T11:39:27.081Z,571.00
2023-04-22T11:40:30.226Z,570.00
2023-04-22T11:41:27.128Z,570.00
2023-04-22T11:42:27.128Z,571.00
2023-04-22T11:43:27.145Z,573.00
2023-04-22T11:44:27.154Z,575.00
2023-04-22T11:45:27.154Z,578.00
2023-04-22T11:46:27.264Z,576.00
2023-04-22T11:47:27.179Z,572.00
2023-04-22T11:48:27.170Z,575.00
2023-04-22T11:49:27.162Z,570.00
2023-04-22T11:50:27.189Z,576.00
2023-04-22T11:51:27.193Z,572.00
2023-04-22T11:52:27.177Z,572.00
2023-04-22T11:53:27.186Z,569.00
2023-04-22T11:54:27.185Z,571.00
2023-04-22T11:55:27.188Z,569.00
2023-04-22T11:56:27.192Z,570.00
2023-04-22T11:57:27.184Z,571.00
2023-04-22T11:58:27.956Z,571.00
2023-04-22T11:59:27.197Z,571.00
2023-04-22T12:00:27.211Z,572.00
2023-04-22T12:01:27.211Z,573.00
2023-04-22T12:02:27.421Z,572.00
2023-04-22T12:03:27.378Z,572.00
2023-04-22T12:04:27.225Z,571.00
2023-04-22T12:05:27.236Z,568.00
2023-04-22T12:06:27.237Z,567.00
2023-04-22T12:07:27.281Z,571.00
2023-04-22T12:08:27.338Z,567.00
2023-04-22T12:09:27.377Z,565.00
2023-04-22T12:10:27.421Z,568.00
2023-04-22T12:11:27.459Z,571.00
2023-04-22T12:12:27.506Z,564.00
2023-04-22T12:13:27.560Z,571.00
2023-04-22T12:14:27.612Z,567.00
2023-04-22T12:15:27.664Z,566.00
2023-04-22T12:16:27.730Z,573.00
2023-04-22T12:17:27.799Z,565.00
2023-04-22T12:18:27.836Z,563.00
2023-04-22T12:19:27.852Z,564.00
2023-04-22T12:20:27.902Z,568.00
2023-04-22T12:21:27.967Z,566.00
2023-04-22T12:22:28.003Z,566.00
2023-04-22T12:23:28.055Z,566.00
2023-04-22T12:24:28.097Z,567.00
2023-04-22T12:25:28.148Z,562.00
2023-04-22T12:26:28.185Z,566.00
2023-04-22T12:27:28.955Z,567.00
2023-04-22T12:28:28.285Z,568.00
2023-04-22T12:29:28.348Z,564.00
2023-04-22T12:30:28.383Z,559.00